createdAt,value
2023-05-05T00:00:11.752Z,15.14
2023-05-05T00:01:11.834Z,15.11
2023-05-05T00:02:11.726Z,15.10
2023-05-05T00:03:12.675Z,15.10
2023-05-05T00:04:11.837Z,15.09
2023-05-05T00:05:11.710Z,15.07
2023-05-05T00:06:11.674Z,15.06
2023-05-05T00:07:11.697Z,15.04
2023-05-05T00:08:11.644Z,15.00
2023-05-05T00:09:12.623Z,14.99
2023-05-05T00:10:11.619Z,14.97
2023-05-05T00:11:11.673Z,14.97
2023-05-05T00:12:11.742Z,14.97
2023-05-05T00:13:11.737Z,14.97
2023-05-05T00:14:12.612Z,14.96
2023-05-05T00:15:11.827Z,14.96
2023-05-05T00:16:11.610Z,14.96
2023-05-05T00:17:11.629Z,14.96
2023-05-05T00:18:11.620Z,14.94
2023-05-05T00:19:11.562Z,14.89
2023-05-05T00:20:12.474Z,14.89
2023-05-05T00:21:11.698Z,14.88
2023-05-05T00:22:11.497Z,14.88
2023-05-05T00:23:11.509Z,14.88
2023-05-05T00:24:11.468Z,14.86
2023-05-05T00:25:11.485Z,14.85
2023-05-05T00:26:12.360Z,14.84
2023-05-05T00:27:11.504Z,14.82
2023-05-05T00:28:11.410Z,14.81
2023-05-05T00:29:11.407Z,14.81
2023-05-05T00:30:11.335Z,14.81
2023-05-05T00:31:11.455Z,14.81
2023-05-05T00:32:12.332Z,14.78
2023-05-05T00:33:11.370Z,14.77
2023-05-05T00:34:12.045Z,14.77
2023-05-05T00:35:11.268Z,14.73
2023-05-05T00:36:11.307Z,14.72
2023-05-05T00:37:12.297Z,14.73
2023-05-05T00:38:11.275Z,14.73
2023-05-05T00:39:11.364Z,14.77
2023-05-05T00:40:11.238Z,14.72
2023-05-05T00:41:11.251Z,14.73
2023-05-05T00:42:12.249Z,14.73
2023-05-05T00:43:11.249Z,14.72
2023-05-05T00:44:11.202Z,14.70
2023-05-05T00:45:11.147Z,14.70
2023-05-05T00:46:11.189Z,14.69
2023-05-05T00:47:12.109Z,14.69
2023-05-05T00:48:11.250Z,14.68
2023-05-05T00:49:11.204Z,14.65
2023-05-05T00:50:11.103Z,14.63
2023-05-05T00:51:11.141Z,14.65
2023-05-05T00:52:12.076Z,14.63
2023-05-05T00:53:11.097Z,14.65
2023-05-05T00:54:11.111Z,14.65
2023-05-05T00:55:11.788Z,14.62
2023-05-05T00:56:11.070Z,14.59
2023-05-05T00:57:12.755Z,14.55
2023-05-05T00:58:11.171Z,14.53
2023-05-05T00:59:10.993Z,14.53
2023-05-05T01:00:11.026Z,14.51
2023-05-05T01:01:11.175Z,14.51
2023-05-05T01:02:10.940Z,14.53
2023-05-05T01:03:12.034Z,14.50
2023-05-05T01:04:11.101Z,14.51
2023-05-05T01:05:10.984Z,14.50
2023-05-05T01:06:10.899Z,14.50
2023-05-05T01:07:10.884Z,14.48
2023-05-05T01:08:10.988Z,14.48
2023-05-05T01:09:11.876Z,14.45
2023-05-05T01:10:19.800Z,14.47
2023-05-05T01:11:12.426Z,14.47
2023-05-05T01:12:10.825Z,14.48
2023-05-05T01:13:10.850Z,14.47
2023-05-05T01:14:17.195Z,14.45
2023-05-05T01:15:10.768Z,14.45
2023-05-05T01:16:11.003Z,14.43
2023-05-05T01:17:10.760Z,14.43
2023-05-05T01:18:10.790Z,14.43
2023-05-05T01:19:10.721Z,14.44
2023-05-05T01:20:11.707Z,14.44
2023-05-05T01:21:10.722Z,14.44
2023-05-05T01:22:10.680Z,14.44
2023-05-05T01:23:10.688Z,14.43
2023-05-05T01:24:10.714Z,14.40
2023-05-05T01:25:11.603Z,14.43
2023-05-05T01:26:10.731Z,14.41
2023-05-05T01:27:10.668Z,14.40
2023-05-05T01:28:10.625Z,14.40
2023-05-05T01:29:10.651Z,14.41
2023-05-05T01:30:10.710Z,14.40
2023-05-05T01:31:11.583Z,14.40
2023-05-05T01:32:10.564Z,14.37
2023-05-05T01:33:10.584Z,14.37
2023-05-05T01:34:10.599Z,14.37
2023-05-05T01:35:10.626Z,14.37
2023-05-05T01:36:11.451Z,14.36
2023-05-05T01:37:10.639Z,14.36
2023-05-05T01:38:10.522Z,14.36
2023-05-05T01:39:10.572Z,14.36
2023-05-05T01:40:10.495Z,14.33
2023-05-05T01:41:10.629Z,14.33
2023-05-05T01:42:11.517Z,14.32
2023-05-05T01:43:10.476Z,14.32
2023-05-05T01:44:10.425Z,14.32
2023-05-05T01:45:10.431Z,14.32
2023-05-05T01:46:10.413Z,14.32
2023-05-05T01:47:11.429Z,14.30
2023-05-05T01:48:10.360Z,14.32
2023-05-05T01:49:10.374Z,14.30
2023-05-05T01:50:10.538Z,14.28
2023-05-05T01:51:10.438Z,14.28
2023-05-05T01:52:11.379Z,14.26
2023-05-05T01:53:10.770Z,14.23
2023-05-05T01:54:10.479Z,14.20
2023-05-05T01:55:10.355Z,14.17
2023-05-05T01:56:10.588Z,14.17
2023-05-05T01:57:10.343Z,14.15
2023-05-05T01:58:11.214Z,14.17
2023-05-05T01:59:10.469Z,14.15
2023-05-05T02:00:10.428Z,14.15
2023-05-05T02:01:10.320Z,14.14
2023-05-05T02:02:10.237Z,14.14
2023-05-05T02:03:10.389Z,14.11
2023-05-05T02:04:11.096Z,14.11
2023-05-05T02:05:10.383Z,14.07
2023-05-05T02:06:10.231Z,14.05
2023-05-05T02:07:10.181Z,14.05
2023-05-05T02:08:10.246Z,14.00
2023-05-05T02:09:10.349Z,14.00
2023-05-05T02:10:11.029Z,13.95
2023-05-05T02:11:10.118Z,13.95
2023-05-05T02:12:10.172Z,13.93
2023-05-05T02:13:10.192Z,13.90
2023-05-05T02:14:10.086Z,13.90
2023-05-05T02:15:10.039Z,13.89
2023-05-05T02:16:11.034Z,13.92
2023-05-05T02:17:10.051Z,13.90
2023-05-05T02:18:10.131Z,13.93
2023-05-05T02:19:10.149Z,13.92
2023-05-05T02:20:10.096Z,13.92
2023-05-05T02:21:10.911Z,13.92
2023-05-05T02:22:09.983Z,13.90
2023-05-05T02:23:10.056Z,13.89
2023-05-05T02:24:10.049Z,13.89
2023-05-05T02:25:09.935Z,13.87
2023-05-05T02:26:09.914Z,13.86
2023-05-05T02:27:10.809Z,13.83
2023-05-05T02:29:07.433Z,13.79
2023-05-05T02:30:07.630Z,13.81
2023-05-05T02:31:07.477Z,13.78
2023-05-05T02:32:07.319Z,13.75
2023-05-05T02:33:07.289Z,13.72
2023-05-05T02:34:07.286Z,13.71
2023-05-05T02:35:07.283Z,13.70
2023-05-05T02:36:07.275Z,13.70
2023-05-05T02:37:07.248Z,13.70
2023-05-05T02:38:13.472Z,13.68
2023-05-05T02:39:07.269Z,13.68
2023-05-05T02:40:08.393Z,13.67
2023-05-05T02:41:07.270Z,13.67
2023-05-05T02:42:07.231Z,13.63
2023-05-05T02:43:07.218Z,13.63
2023-05-05T02:44:08.152Z,13.62
2023-05-05T02:45:07.182Z,13.62
2023-05-05T02:46:07.254Z,13.59
2023-05-05T02:47:07.109Z,13.60
2023-05-05T02:48:07.212Z,13.57
2023-05-05T02:49:08.041Z,13.56
2023-05-05T02:50:07.261Z,13.56
2023-05-05T02:51:07.062Z,13.56
2023-05-05T02:52:07.068Z,13.56
2023-05-05T02:53:07.077Z,13.57
2023-05-05T02:54:08.061Z,13.57
2023-05-05T02:55:07.048Z,13.57
2023-05-05T02:56:07.049Z,13.59
2023-05-05T02:57:07.000Z,13.59
2023-05-05T02:58:06.978Z,13.59
2023-05-05T02:59:06.986Z,13.60
2023-05-05T03:00:08.081Z,13.62
2023-05-05T03:01:06.974Z,13.62
2023-05-05T03:02:06.929Z,13.62
2023-05-05T03:03:07.085Z,13.63
2023-05-05T03:04:06.890Z,13.63
2023-05-05T03:05:07.822Z,13.62
2023-05-05T03:06:06.906Z,13.60
2023-05-05T03:07:06.909Z,13.60
2023-05-05T03:08:06.929Z,13.60
2023-05-05T03:09:06.874Z,13.60
2023-05-05T03:10:08.126Z,13.60
2023-05-05T03:11:06.870Z,13.60
2023-05-05T03:12:06.930Z,13.60
2023-05-05T03:13:06.892Z,13.60
2023-05-05T03:14:06.773Z,13.60
2023-05-05T03:15:07.693Z,13.60
2023-05-05T03:16:06.913Z,13.60
2023-05-05T03:17:06.769Z,13.57
2023-05-05T03:18:06.746Z,13.56
2023-05-05T03:19:07.007Z,13.56
2023-05-05T03:20:07.812Z,13.56
2023-05-05T03:21:06.696Z,13.53
2023-05-05T03:22:06.683Z,13.52
2023-05-05T03:23:07.353Z,13.50
2023-05-05T03:24:06.648Z,13.50
2023-05-05T03:25:07.583Z,13.50
2023-05-05T03:26:06.691Z,13.50
2023-05-05T03:27:06.663Z,13.50
2023-05-05T03:28:06.605Z,13.49
2023-05-05T03:29:06.584Z,13.50
2023-05-05T03:30:06.965Z,13.49
2023-05-05T03:31:07.515Z,13.49
2023-05-05T03:32:06.603Z,13.49
2023-05-05T03:33:06.586Z,13.47
2023-05-05T03:34:06.584Z,13.46
2023-05-05T03:35:06.507Z,13.47
2023-05-05T03:36:07.549Z,13.47
2023-05-05T03:37:07.420Z,13.47
2023-05-05T03:38:06.488Z,13.46
2023-05-05T03:39:06.516Z,13.46
2023-05-05T03:40:06.650Z,13.44
2023-05-05T03:41:06.464Z,13.44
2023-05-05T03:42:07.422Z,13.44
2023-05-05T03:43:06.407Z,13.44
2023-05-05T03:44:06.529Z,13.44
2023-05-05T03:45:06.393Z,13.44
2023-05-05T03:46:06.418Z,13.46
2023-05-05T03:47:07.319Z,13.44
2023-05-05T03:48:06.357Z,13.44
2023-05-05T03:49:06.343Z,13.42
2023-05-05T03:50:06.431Z,13.42
2023-05-05T03:51:06.312Z,13.41
2023-05-05T03:52:06.328Z,13.41
2023-05-05T03:53:07.227Z,13.41
2023-05-05T03:54:06.379Z,13.41
2023-05-05T03:55:06.266Z,13.41
2023-05-05T03:56:06.246Z,13.41
2023-05-05T03:57:06.247Z,13.41
2023-05-05T03:58:06.253Z,13.37
2023-05-05T03:59:07.150Z,13.37
2023-05-05T04:00:06.332Z,13.35
2023-05-05T04:01:06.206Z,13.33
2023-05-05T04:02:06.239Z,13.31
2023-05-05T04:03:06.252Z,13.33
2023-05-05T04:04:07.169Z,13.33
2023-05-05T04:05:06.133Z,13.31
2023-05-05T04:06:06.150Z,13.33
2023-05-05T04:07:06.144Z,13.31
2023-05-05T04:08:06.106Z,13.31
2023-05-05T04:09:07.064Z,13.31
2023-05-05T04:10:06.227Z,13.31
2023-05-05T04:11:06.086Z,13.31
2023-05-05T04:12:06.059Z,13.30
2023-05-05T04:13:06.078Z,13.30
2023-05-05T04:14:05.991Z,13.30
2023-05-05T04:15:06.916Z,13.30
2023-05-05T04:16:06.039Z,13.31
2023-05-05T04:17:06.014Z,13.31
2023-05-05T04:18:06.031Z,13.33
2023-05-05T04:19:05.944Z,13.31
2023-05-05T04:20:07.211Z,13.31
2023-05-05T04:21:05.946Z,13.28
2023-05-05T04:22:05.964Z,13.28
2023-05-05T04:23:05.926Z,13.30
2023-05-05T04:24:05.909Z,13.25
2023-05-05T04:25:06.807Z,13.23
2023-05-05T04:26:05.900Z,13.25
2023-05-05T04:27:05.862Z,13.23
2023-05-05T04:28:05.842Z,13.20
2023-05-05T04:29:05.859Z,13.19
2023-05-05T04:30:05.931Z,13.16
2023-05-05T04:31:06.790Z,13.19
2023-05-05T04:32:05.836Z,13.19
2023-05-05T04:33:05.755Z,13.18
2023-05-05T04:34:05.771Z,13.13
2023-05-05T04:35:05.834Z,13.11
2023-05-05T04:36:05.716Z,13.12
2023-05-05T04:37:06.668Z,13.08
2023-05-05T04:38:06.677Z,13.08
2023-05-05T04:39:05.713Z,13.08
2023-05-05T04:40:05.759Z,13.08
2023-05-05T04:41:05.672Z,13.11
2023-05-05T04:42:06.680Z,13.08
2023-05-05T04:43:05.677Z,13.05
2023-05-05T04:44:05.629Z,13.04
2023-05-05T04:45:05.635Z,13.01
2023-05-05T04:46:05.622Z,13.04
2023-05-05T04:47:06.550Z,13.00
2023-05-05T04:48:05.636Z,12.98
2023-05-05T04:49:05.567Z,12.97
2023-05-05T04:50:06.767Z,12.98
2023-05-05T04:51:05.537Z,12.97
2023-05-05T04:52:06.456Z,12.98
2023-05-05T04:53:05.571Z,13.01
2023-05-05T04:54:05.498Z,13.03
2023-05-05T04:55:05.504Z,13.03
2023-05-05T04:56:05.505Z,13.05
2023-05-05T04:57:05.472Z,13.08
2023-05-05T04:58:06.394Z,13.09
2023-05-05T04:59:05.444Z,13.11
2023-05-05T05:00:05.678Z,13.13
2023-05-05T05:01:05.391Z,13.15
2023-05-05T05:02:05.481Z,13.11
2023-05-05T05:03:06.379Z,13.12
2023-05-05T05:04:05.428Z,13.11
2023-05-05T05:05:05.395Z,13.12
2023-05-05T05:06:05.378Z,13.12
2023-05-05T05:07:05.419Z,13.12
2023-05-05T05:08:06.256Z,13.13
2023-05-05T05:09:05.332Z,13.11
2023-05-05T05:10:05.446Z,13.12
2023-05-05T05:11:05.329Z,13.12
2023-05-05T05:12:05.308Z,13.12
2023-05-05T05:13:12.966Z,13.09
2023-05-05T05:14:06.201Z,13.11
2023-05-05T05:15:05.356Z,13.04
2023-05-05T05:16:05.322Z,13.05
2023-05-05T05:17:05.312Z,13.05
2023-05-05T05:18:05.264Z,13.03
2023-05-05T05:19:06.124Z,13.04
2023-05-05T05:20:05.218Z,13.03
2023-05-05T05:21:05.163Z,13.05
2023-05-05T05:22:05.182Z,13.09
2023-05-05T05:23:05.170Z,13.11
2023-05-05T05:24:06.088Z,13.09
2023-05-05T05:25:05.208Z,13.09
2023-05-05T05:26:05.133Z,13.09
2023-05-05T05:27:05.820Z,13.11
2023-05-05T05:28:09.683Z,13.11
2023-05-05T05:29:07.581Z,13.08
2023-05-05T05:30:05.078Z,13.08
2023-05-05T05:31:05.025Z,13.08
2023-05-05T05:32:05.173Z,13.09
2023-05-05T05:33:05.111Z,13.08
2023-05-05T05:34:05.946Z,13.12
2023-05-05T05:35:05.069Z,13.13
2023-05-05T05:36:04.957Z,13.12
2023-05-05T05:37:04.984Z,13.12
2023-05-05T05:38:04.947Z,13.12
2023-05-05T05:39:05.874Z,13.13
2023-05-05T05:40:06.109Z,13.16
2023-05-05T05:41:04.947Z,13.15
2023-05-05T05:42:04.894Z,13.12
2023-05-05T05:43:05.061Z,13.13
2023-05-05T05:44:05.817Z,13.15
2023-05-05T05:45:04.910Z,13.18
2023-05-05T05:46:07.610Z,13.22
2023-05-05T05:47:04.855Z,13.27
2023-05-05T05:48:04.873Z,13.31
2023-05-05T05:49:04.776Z,13.33
2023-05-05T05:50:06.986Z,13.37
2023-05-05T05:51:04.830Z,13.37
2023-05-05T05:52:04.808Z,13.38
2023-05-05T05:53:04.761Z,13.41
2023-05-05T05:54:04.916Z,13.37
2023-05-05T05:55:05.706Z,13.39
2023-05-05T05:56:04.724Z,13.42
2023-05-05T05:57:04.749Z,13.46
2023-05-05T05:58:05.668Z,13.52
2023-05-05T05:59:04.707Z,13.54
2023-05-05T06:00:04.730Z,13.57
2023-05-05T06:01:05.626Z,13.59
2023-05-05T06:02:04.721Z,13.57
2023-05-05T06:03:04.741Z,13.59
2023-05-05T06:04:04.639Z,13.59
2023-05-05T06:05:04.617Z,13.60
2023-05-05T06:06:04.618Z,13.54
2023-05-05T06:07:05.499Z,13.53
2023-05-05T06:08:04.557Z,13.49
2023-05-05T06:09:04.562Z,13.44
2023-05-05T06:10:15.000Z,13.46
2023-05-05T06:11:06.026Z,13.49
2023-05-05T06:12:04.534Z,13.50
2023-05-05T06:13:05.773Z,13.52
2023-05-05T06:14:04.486Z,13.57
2023-05-05T06:15:05.443Z,13.62
2023-05-05T06:16:04.470Z,13.70
2023-05-05T06:17:04.451Z,13.74
2023-05-05T06:18:05.434Z,13.78
2023-05-05T06:19:04.444Z,13.81
2023-05-05T06:20:04.391Z,13.87
2023-05-05T06:21:04.429Z,13.93
2023-05-05T06:22:04.393Z,13.99
2023-05-05T06:23:05.280Z,14.03
2023-05-05T06:24:04.336Z,14.05
2023-05-05T06:25:05.308Z,14.10
2023-05-05T06:26:04.404Z,14.15
2023-05-05T06:27:04.354Z,14.20
2023-05-05T06:28:05.246Z,14.23
2023-05-05T06:29:04.770Z,14.28
2023-05-05T06:30:05.229Z,14.30
2023-05-05T06:31:04.291Z,14.32
2023-05-05T06:32:04.312Z,14.37
2023-05-05T06:33:04.281Z,14.41
2023-05-05T06:34:05.172Z,14.44
2023-05-05T06:35:04.862Z,14.44
2023-05-05T06:36:04.227Z,14.44
2023-05-05T06:37:04.192Z,14.44
2023-05-05T06:38:04.244Z,14.43
2023-05-05T06:39:04.167Z,14.45
2023-05-05T06:40:05.166Z,14.45
2023-05-05T06:41:05.209Z,14.47
2023-05-05T06:42:04.224Z,14.48
2023-05-05T06:43:04.207Z,14.50
2023-05-05T06:44:05.194Z,14.53
2023-05-05T06:45:04.179Z,14.53
2023-05-05T06:46:05.030Z,14.58
2023-05-05T06:47:05.425Z,14.59
2023-05-05T06:48:05.109Z,14.66
2023-05-05T06:49:04.094Z,14.72
2023-05-05T06:50:05.111Z,14.78
2023-05-05T06:51:05.019Z,14.79
2023-05-05T06:52:05.048Z,14.84
2023-05-05T06:53:05.047Z,14.88
2023-05-05T06:54:04.004Z,14.91
2023-05-05T06:55:04.031Z,14.89
2023-05-05T06:56:04.207Z,14.89
2023-05-05T06:57:04.011Z,14.89
2023-05-05T06:58:04.880Z,14.91
2023-05-05T06:59:03.916Z,14.94
2023-05-05T07:00:03.917Z,14.94
2023-05-05T07:01:03.937Z,14.96
2023-05-05T07:02:03.931Z,14.94
2023-05-05T07:03:03.961Z,14.96
2023-05-05T07:04:05.798Z,14.96
2023-05-05T07:05:05.045Z,14.97
2023-05-05T07:06:04.800Z,15.02
2023-05-05T07:07:03.863Z,15.02
2023-05-05T07:08:04.769Z,15.02
2023-05-05T07:09:03.848Z,15.02
2023-05-05T07:10:04.697Z,15.00
2023-05-05T07:11:03.827Z,14.96
2023-05-05T07:12:03.797Z,14.94
2023-05-05T07:13:03.781Z,14.97
2023-05-05T07:14:03.765Z,15.00
2023-05-05T07:15:15.377Z,15.04
2023-05-05T07:16:05.337Z,15.09
2023-05-05T07:17:03.691Z,15.07
2023-05-05T07:18:03.733Z,15.10
2023-05-05T07:19:03.672Z,15.14
2023-05-05T07:20:04.608Z,15.17
2023-05-05T07:21:03.647Z,15.22
2023-05-05T07:22:03.636Z,15.25
2023-05-05T07:23:03.680Z,15.31
2023-05-05T07:24:03.605Z,15.36
2023-05-05T07:25:03.610Z,15.40
2023-05-05T07:26:04.562Z,15.40
2023-05-05T07:27:03.593Z,15.44
2023-05-05T07:28:03.597Z,15.51
2023-05-05T07:29:03.535Z,15.55
2023-05-05T07:30:07.901Z,15.61
2023-05-05T07:31:05.963Z,15.64
2023-05-05T07:32:03.615Z,15.65
2023-05-05T07:33:03.551Z,15.70
2023-05-05T07:34:03.490Z,15.75
2023-05-05T07:35:03.443Z,15.77
2023-05-05T07:36:04.421Z,15.80
2023-05-05T07:37:04.440Z,15.83
2023-05-05T07:38:03.407Z,15.84
2023-05-05T07:39:03.520Z,15.91
2023-05-05T07:40:03.377Z,15.97
2023-05-05T07:41:03.420Z,16.00
2023-05-05T07:42:04.317Z,16.00
2023-05-05T07:43:03.342Z,16.04
2023-05-05T07:44:03.334Z,16.08
2023-05-05T07:45:03.370Z,16.09
2023-05-05T07:46:03.427Z,16.12
2023-05-05T07:47:04.205Z,16.15
2023-05-05T07:48:03.304Z,16.17
2023-05-05T07:49:03.278Z,16.23
2023-05-05T07:50:03.270Z,16.24
2023-05-05T07:51:03.240Z,16.29
2023-05-05T07:52:03.339Z,16.29
2023-05-05T07:53:13.690Z,16.35
2023-05-05T07:54:04.799Z,16.39
2023-05-05T07:55:03.226Z,16.47
2023-05-05T07:56:04.174Z,16.50
2023-05-05T07:57:04.153Z,16.49
2023-05-05T07:58:04.134Z,16.56
2023-05-05T07:59:04.134Z,16.61
2023-05-05T08:00:03.175Z,16.65
2023-05-05T08:01:04.237Z,16.66
2023-05-05T08:02:03.088Z,16.69
2023-05-05T08:03:03.260Z,16.74
2023-05-05T08:04:03.181Z,16.78
2023-05-05T08:05:04.030Z,16.81
2023-05-05T08:06:03.061Z,16.86
2023-05-05T08:07:03.045Z,16.90
2023-05-05T08:08:03.081Z,16.94
2023-05-05T08:09:03.002Z,16.99
2023-05-05T08:10:03.026Z,17.04
2023-05-05T08:11:03.923Z,17.05
2023-05-05T08:12:04.005Z,17.11
2023-05-05T08:13:03.028Z,17.11
2023-05-05T08:14:02.992Z,17.15
2023-05-05T08:15:02.997Z,17.19
2023-05-05T08:16:03.956Z,17.24
2023-05-05T08:17:02.985Z,17.27
2023-05-05T08:18:02.991Z,17.30
2023-05-05T08:19:02.976Z,17.34
2023-05-05T08:20:02.950Z,17.36
2023-05-05T08:21:03.810Z,17.38
2023-05-05T08:22:02.920Z,17.42
2023-05-05T08:23:02.893Z,17.46
2023-05-05T08:24:02.815Z,17.54
2023-05-05T08:25:02.868Z,17.63
2023-05-05T08:26:04.019Z,17.67
2023-05-05T08:27:02.784Z,17.70
2023-05-05T08:29:00.290Z,17.76
2023-05-05T08:30:00.268Z,17.80
2023-05-05T08:31:01.203Z,17.87
2023-05-05T08:32:00.361Z,17.95
2023-05-05T08:33:00.322Z,17.95
2023-05-05T08:34:00.210Z,18.00
2023-05-05T08:35:00.188Z,18.01
2023-05-05T08:36:00.161Z,17.94
2023-05-05T08:37:01.142Z,17.90
2023-05-05T08:38:00.164Z,17.87
2023-05-05T08:39:00.393Z,17.87
2023-05-05T08:40:00.375Z,17.86
2023-05-05T08:41:00.164Z,17.97
2023-05-05T08:42:01.041Z,18.04
2023-05-05T08:43:00.145Z,18.16
2023-05-05T08:44:00.103Z,18.26
2023-05-05T08:45:00.155Z,18.37
2023-05-05T08:46:00.037Z,18.44
2023-05-05T08:47:01.075Z,18.47
2023-05-05T08:48:00.090Z,18.45
2023-05-05T08:49:00.019Z,18.50
2023-05-05T08:50:00.055Z,18.53
2023-05-05T08:51:01.926Z,18.58
2023-05-05T08:52:00.210Z,18.59
2023-05-05T08:53:00.031Z,18.68
2023-05-05T08:53:59.942Z,18.71
2023-05-05T08:55:00.012Z,18.75
2023-05-05T08:55:59.916Z,18.80
2023-05-05T08:56:59.932Z,18.78
2023-05-05T08:58:00.956Z,18.84
2023-05-05T08:58:59.964Z,18.92
2023-05-05T08:59:59.921Z,18.99
2023-05-05T09:00:59.913Z,19.04
2023-05-05T09:01:59.898Z,19.09
2023-05-05T09:03:00.022Z,19.15
2023-05-05T09:04:00.773Z,19.22
2023-05-05T09:04:59.853Z,19.31
2023-05-05T09:05:59.839Z,19.36
2023-05-05T09:06:59.843Z,19.47
2023-05-05T09:07:59.774Z,19.55
2023-05-05T09:08:59.852Z,19.64
2023-05-05T09:10:00.719Z,19.70
2023-05-05T09:10:59.789Z,19.74
2023-05-05T09:12:00.460Z,19.81
2023-05-05T09:12:59.762Z,19.88
2023-05-05T09:13:59.672Z,19.92
2023-05-05T09:14:59.746Z,19.85
2023-05-05T09:16:00.636Z,19.79
2023-05-05T09:16:59.680Z,19.67
2023-05-05T09:17:59.657Z,19.67
2023-05-05T09:18:59.662Z,19.66
2023-05-05T09:19:59.609Z,19.55
2023-05-05T09:21:00.540Z,19.49
2023-05-05T09:21:59.590Z,19.51
2023-05-05T09:22:59.594Z,19.56
2023-05-05T09:24:07.298Z,19.62
2023-05-05T09:25:01.254Z,19.66
2023-05-05T09:26:00.497Z,19.74
2023-05-05T09:26:59.520Z,19.86
2023-05-05T09:27:59.533Z,19.95
2023-05-05T09:28:59.499Z,19.96
2023-05-05T09:29:59.506Z,20.00
2023-05-05T09:31:00.401Z,20.06
2023-05-05T09:31:59.493Z,20.10
2023-05-05T09:32:59.575Z,20.21
2023-05-05T09:33:59.468Z,20.18
2023-05-05T09:34:59.436Z,20.13
2023-05-05T09:35:59.429Z,20.11
2023-05-05T09:37:00.369Z,20.24
2023-05-05T09:37:59.405Z,20.36
2023-05-05T09:38:59.370Z,20.44
2023-05-05T09:39:59.424Z,20.51
2023-05-05T09:40:59.336Z,20.62
2023-05-05T09:41:59.371Z,20.78
2023-05-05T09:43:00.276Z,20.87
2023-05-05T09:43:59.288Z,20.85
2023-05-05T09:45:00.008Z,20.84
2023-05-05T09:45:59.294Z,20.88
2023-05-05T09:46:59.274Z,20.90
2023-05-05T09:48:00.906Z,21.00
2023-05-05T09:48:59.250Z,21.17
2023-05-05T09:49:59.245Z,21.29
2023-05-05T09:50:59.213Z,21.45
2023-05-05T09:51:59.192Z,21.60
2023-05-05T09:53:00.145Z,21.73
2023-05-05T09:53:59.179Z,21.91
2023-05-05T09:54:59.214Z,22.04
2023-05-05T09:55:59.160Z,22.11
2023-05-05T09:56:59.178Z,22.18
2023-05-05T09:58:00.123Z,22.33
2023-05-05T09:58:59.234Z,22.43
2023-05-05T09:59:59.078Z,22.48
2023-05-05T10:00:59.133Z,22.45
2023-05-05T10:01:59.175Z,22.36
2023-05-05T10:03:00.075Z,22.39
2023-05-05T10:03:59.090Z,22.43
2023-05-05T10:05:00.340Z,22.39
2023-05-05T10:05:59.029Z,22.14
2023-05-05T10:06:59.038Z,22.07
2023-05-05T10:07:59.934Z,22.07
2023-05-05T10:08:58.973Z,21.98
2023-05-05T10:09:58.983Z,21.89
2023-05-05T10:10:58.948Z,21.91
2023-05-05T10:11:59.049Z,21.92
2023-05-05T10:12:59.960Z,21.80
2023-05-05T10:13:58.963Z,21.70
2023-05-05T10:14:58.971Z,21.60
2023-05-05T10:15:58.957Z,21.55
2023-05-05T10:16:58.906Z,21.61
2023-05-05T10:18:07.624Z,21.69
2023-05-05T10:19:00.382Z,21.77
2023-05-05T10:19:58.863Z,21.93
2023-05-05T10:20:58.847Z,22.11
2023-05-05T10:21:58.856Z,22.20
2023-05-05T10:22:58.815Z,22.33
2023-05-05T10:23:59.792Z,22.51
2023-05-05T10:24:58.778Z,22.68
2023-05-05T10:25:58.745Z,22.84
2023-05-05T10:26:58.786Z,23.00
2023-05-05T10:27:58.769Z,23.08
2023-05-05T10:28:59.690Z,23.20
2023-05-05T10:29:58.843Z,23.34
2023-05-05T10:30:58.740Z,23.46
2023-05-05T10:31:58.800Z,23.58
2023-05-05T10:33:17.377Z,23.63
2023-05-05T10:34:00.729Z,23.69
2023-05-05T10:34:58.650Z,23.58
2023-05-05T10:35:58.677Z,23.56
2023-05-05T10:36:58.788Z,23.66
2023-05-05T10:37:58.662Z,23.77
2023-05-05T10:38:58.596Z,23.88
2023-05-05T10:39:59.526Z,24.02
2023-05-05T10:40:58.558Z,24.14
2023-05-05T10:41:58.586Z,24.30
2023-05-05T10:42:58.573Z,24.48
2023-05-05T10:43:58.563Z,24.60
2023-05-05T10:44:59.457Z,24.69
2023-05-05T10:45:58.537Z,24.80
2023-05-05T10:46:58.594Z,24.86
2023-05-05T10:47:58.584Z,24.99
2023-05-05T10:48:58.559Z,25.01
2023-05-05T10:49:59.426Z,24.89
2023-05-05T10:50:58.519Z,24.95
2023-05-05T10:51:58.478Z,25.06
2023-05-05T10:52:58.496Z,25.26
2023-05-05T10:53:58.441Z,25.38
2023-05-05T10:54:59.370Z,25.48
2023-05-05T10:55:58.472Z,25.55
2023-05-05T10:56:58.432Z,25.60
2023-05-05T10:57:58.434Z,25.69
2023-05-05T10:59:00.461Z,25.84
2023-05-05T10:59:58.414Z,25.87
2023-05-05T11:00:59.312Z,25.90
2023-05-05T11:01:58.322Z,26.10
2023-05-05T11:02:58.915Z,26.34
2023-05-05T11:03:58.381Z,26.45
2023-05-05T11:04:58.309Z,26.70
2023-05-05T11:05:59.236Z,26.95
2023-05-05T11:06:58.290Z,27.25
2023-05-05T11:07:58.293Z,27.71
2023-05-05T11:08:58.269Z,28.17
2023-05-05T11:09:58.323Z,28.49
2023-05-05T11:10:58.330Z,28.79
2023-05-05T11:11:59.171Z,29.13
2023-05-05T11:12:58.239Z,28.54
2023-05-05T11:13:58.220Z,28.30
2023-05-05T11:14:58.188Z,28.45
2023-05-05T11:15:58.262Z,28.75
2023-05-05T11:16:59.216Z,29.45
2023-05-05T11:17:58.245Z,30.16
2023-05-05T11:18:58.206Z,30.28
2023-05-05T11:19:58.154Z,29.42
2023-05-05T11:20:58.164Z,28.86
2023-05-05T11:21:58.123Z,28.33
2023-05-05T11:22:59.066Z,28.01
2023-05-05T11:23:58.098Z,28.17
2023-05-05T11:24:58.080Z,28.89
2023-05-05T11:25:58.121Z,29.63
2023-05-05T11:26:58.062Z,30.27
2023-05-05T11:27:58.092Z,30.63
2023-05-05T11:28:59.013Z,30.91
2023-05-05T11:29:58.264Z,31.03
2023-05-05T11:30:58.388Z,30.68
2023-05-05T11:31:58.023Z,30.15
2023-05-05T11:32:58.053Z,29.54
2023-05-05T11:33:58.035Z,28.51
2023-05-05T11:34:58.954Z,27.92
2023-05-05T11:35:57.949Z,27.58
2023-05-05T11:36:58.099Z,27.40
2023-05-05T11:37:57.955Z,27.48
2023-05-05T11:38:57.946Z,27.63
2023-05-05T11:39:58.886Z,27.73
2023-05-05T11:40:57.890Z,27.95
2023-05-05T11:41:57.922Z,28.19
2023-05-05T11:42:57.993Z,28.32
2023-05-05T11:43:57.936Z,28.20
2023-05-05T11:44:58.785Z,28.37
2023-05-05T11:45:57.930Z,28.48
2023-05-05T11:46:59.540Z,28.79
2023-05-05T11:47:57.888Z,29.17
2023-05-05T11:48:57.846Z,29.27
2023-05-05T11:49:58.757Z,29.20
2023-05-05T11:50:57.775Z,29.36
2023-05-05T11:51:57.826Z,29.26
2023-05-05T11:52:57.770Z,28.86
2023-05-05T11:53:59.124Z,29.07
2023-05-05T11:54:57.774Z,29.39
2023-05-05T11:55:58.657Z,29.68
2023-05-05T11:56:57.750Z,29.68
2023-05-05T11:57:57.823Z,29.90
2023-05-05T11:58:57.720Z,30.21
2023-05-05T11:59:57.711Z,30.28
2023-05-05T12:00:58.625Z,29.82
2023-05-05T12:01:57.708Z,29.12
2023-05-05T12:02:57.731Z,28.48
2023-05-05T12:03:57.883Z,27.92
2023-05-05T12:04:57.702Z,27.54
2023-05-05T12:05:57.672Z,27.08
2023-05-05T12:06:58.567Z,26.73
2023-05-05T12:07:57.637Z,27.15
2023-05-05T12:08:57.596Z,28.29
2023-05-05T12:09:57.607Z,29.44
2023-05-05T12:10:57.571Z,30.48
2023-05-05T12:11:58.609Z,31.29
2023-05-05T12:12:57.734Z,31.87
2023-05-05T12:13:57.635Z,32.31
2023-05-05T12:14:57.547Z,32.55
2023-05-05T12:15:57.532Z,32.80
2023-05-05T12:16:58.193Z,32.93
2023-05-05T12:18:00.119Z,32.95
2023-05-05T12:18:57.504Z,32.71
2023-05-05T12:19:57.488Z,33.00
2023-05-05T12:20:57.500Z,33.11
2023-05-05T12:21:57.481Z,33.45
2023-05-05T12:22:58.165Z,33.64
2023-05-05T12:23:58.394Z,33.84
2023-05-05T12:24:57.417Z,34.05
2023-05-05T12:25:57.402Z,33.98
2023-05-05T12:26:57.385Z,34.11
2023-05-05T12:27:57.421Z,34.16
2023-05-05T12:28:58.317Z,34.13
2023-05-05T12:29:57.396Z,34.24
2023-05-05T12:30:57.463Z,34.39
2023-05-05T12:31:57.408Z,34.66
2023-05-05T12:32:57.351Z,34.89
2023-05-05T12:33:57.361Z,35.15
2023-05-05T12:34:58.304Z,35.27
2023-05-05T12:35:57.321Z,35.37
2023-05-05T12:36:57.294Z,35.11
2023-05-05T12:37:57.361Z,35.34
2023-05-05T12:38:57.309Z,35.61
2023-05-05T12:39:57.278Z,35.89
2023-05-05T12:40:58.255Z,35.83
2023-05-05T12:41:57.279Z,35.58
2023-05-05T12:42:57.284Z,35.82
2023-05-05T12:43:57.204Z,35.93
2023-05-05T12:44:57.244Z,36.14
2023-05-05T12:45:58.178Z,36.18
2023-05-05T12:46:57.197Z,35.95
2023-05-05T12:47:57.285Z,35.76
2023-05-05T12:48:57.194Z,35.52
2023-05-05T12:49:57.196Z,35.45
2023-05-05T12:50:58.126Z,35.26
2023-05-05T12:51:57.173Z,35.11
2023-05-05T12:52:57.225Z,34.54
2023-05-05T12:53:57.204Z,33.73